sensor_id;sensor_type;location;lat;lon;timestamp;pressure;altitude;pressure_sealevel;temperature;humidity
61119;BME280;51448;51.660;5.824;2024-02-28T00:01:33;101957.75;;;0.86;100.00
61119;BME280;51448;51.660;5.824;2024-02-28T00:04:01;101962.81;;;0.83;100.00
61119;BME280;51448;51.660;5.824;2024-02-28T00:06:28;101968.47;;;0.81;100.00
61119;BME280;51448;51.660;5.824;2024-02-28T00:08:56;101963.03;;;0.81;100.00
61119;BME280;51448;51.660;5.824;2024-02-28T00:11:23;101959.47;;;0.81;100.00
61119;BME280;51448;51.660;5.824;2024-02-28T00:13:51;101959.13;;;0.77;100.00
61119;BME280;51448;51.660;5.824;2024-02-28T00:16:18;101965.00;;;0.74;99.86
61119;BME280;51448;51.660;5.824;2024-02-28T00:18:46;101961.06;;;0.70;99.80
61119;BME280;51448;51.660;5.824;2024-02-28T00:21:13;101961.31;;;0.68;100.00
61119;BME280;51448;51.660;5.824;2024-02-28T00:23:41;101955.47;;;0.65;99.97
61119;BME280;51448;51.660;5.824;2024-02-28T00:26:09;101955.13;;;0.61;99.98
61119;BME280;51448;51.660;5.824;2024-02-28T00:28:36;101958.50;;;0.57;100.00
61119;BME280;51448;51.660;5.824;2024-02-28T00:31:04;101958.78;;;0.48;100.00
61119;BME280;51448;51.660;5.824;2024-02-28T00:33:31;101956.97;;;0.42;100.00
61119;BME280;51448;51.660;5.824;2024-02-28T00:35:59;101960.16;;;0.39;100.00
61119;BME280;51448;51.660;5.824;2024-02-28T00:38:26;101960.34;;;0.38;100.00
61119;BME280;51448;51.660;5.824;2024-02-28T00:40:55;101952.00;;;0.39;100.00
61119;BME280;51448;51.660;5.824;2024-02-28T00:43:22;101955.78;;;0.38;100.00
61119;BME280;51448;51.660;5.824;2024-02-28T00:45:52;101956.38;;;0.40;100.00
61119;BME280;51448;51.660;5.824;2024-02-28T00:48:19;101944.69;;;0.40;100.00
61119;BME280;51448;51.660;5.824;2024-02-28T00:50:47;101950.13;;;0.40;100.00
61119;BME280;51448;51.660;5.824;2024-02-28T00:53:15;101946.34;;;0.41;100.00
61119;BME280;51448;51.660;5.824;2024-02-28T00:55:43;101949.06;;;0.41;100.00
61119;BME280;51448;51.660;5.824;2024-02-28T00:58:11;101942.81;;;0.40;100.00
61119;BME280;51448;51.660;5.824;2024-02-28T01:00:39;101949.06;;;0.41;100.00
61119;BME280;51448;51.660;5.824;2024-02-28T01:03:06;101944.47;;;0.41;100.00
61119;BME280;51448;51.660;5.824;2024-02-28T01:05:36;101938.78;;;0.43;100.00
61119;BME280;51448;51.660;5.824;2024-02-28T01:08:04;101936.91;;;0.43;100.00
61119;BME280;51448;51.660;5.824;2024-02-28T01:10:33;101952.16;;;0.44;100.00
61119;BME280;51448;51.660;5.824;2024-02-28T01:13:01;101942.97;;;0.45;100.00
61119;BME280;51448;51.660;5.824;2024-02-28T01:15:28;101954.41;;;0.47;100.00
61119;BME280;51448;51.660;5.824;2024-02-28T01:17:56;101945.44;;;0.47;100.00
61119;BME280;51448;51.660;5.824;2024-02-28T01:20:24;101951.09;;;0.45;100.00
61119;BME280;51448;51.660;5.824;2024-02-28T01:22:52;101954.25;;;0.42;100.00
61119;BME280;51448;51.660;5.824;2024-02-28T01:25:19;101949.91;;;0.41;100.00
61119;BME280;51448;51.660;5.824;2024-02-28T01:27:47;101946.13;;;0.42;100.00
61119;BME280;51448;51.660;5.824;2024-02-28T01:30:15;101952.16;;;0.44;100.00
61119;BME280;51448;51.660;5.824;2024-02-28T01:32:42;101947.56;;;0.45;100.00
61119;BME280;51448;51.660;5.824;2024-02-28T01:35:10;101949.47;;;0.44;100.00
61119;BME280;51448;51.660;5.824;2024-02-28T01:37:37;101946.94;;;0.43;100.00
61119;BME280;51448;51.660;5.824;2024-02-28T01:40:05;101937.97;;;0.42;100.00
61119;BME280;51448;51.660;5.824;2024-02-28T01:42:33;101952.84;;;0.40;100.00
61119;BME280;51448;51.660;5.824;2024-02-28T01:45:01;101956.81;;;0.37;100.00
61119;BME280;51448;51.660;5.824;2024-02-28T01:47:29;101954.56;;;0.34;100.00
61119;BME280;51448;51.660;5.824;2024-02-28T01:49:57;101948.31;;;0.34;100.00
61119;BME280;51448;51.660;5.824;2024-02-28T01:52:25;101952.44;;;0.36;100.00
61119;BME280;51448;51.660;5.824;2024-02-28T01:54:53;101957.88;;;0.36;100.00
61119;BME280;51448;51.660;5.824;2024-02-28T01:57:21;101960.00;;;0.34;100.00
61119;BME280;51448;51.660;5.824;2024-02-28T01:59:49;101970.63;;;0.36;100.00
61119;BME280;51448;51.660;5.824;2024-02-28T02:02:17;101960.34;;;0.38;100.00
61119;BME280;51448;51.660;5.824;2024-02-28T02:04:45;101956.00;;;0.37;100.00
61119;BME280;51448;51.660;5.824;2024-02-28T02:07:13;101957.66;;;0.38;100.00
61119;BME280;51448;51.660;5.824;2024-02-28T02:09:41;101954.56;;;0.34;100.00
61119;BME280;51448;51.660;5.824;2024-02-28T02:12:08;101951.69;;;0.29;100.00
61119;BME280;51448;51.660;5.824;2024-02-28T02:14:36;101958.63;;;0.25;100.00
61119;BME280;51448;51.660;5.824;2024-02-28T02:17:04;101952.59;;;0.23;100.00
61119;BME280;51448;51.660;5.824;2024-02-28T02:19:31;101965.34;;;0.22;100.00
61119;BME280;51448;51.660;5.824;2024-02-28T02:22:03;101965.53;;;0.21;100.00
61119;BME280;51448;51.660;5.824;2024-02-28T02:24:32;101960.09;;;0.21;100.00
61119;BME280;51448;51.660;5.824;2024-02-28T02:27:01;101959.50;;;0.19;100.00
61119;BME280;51448;51.660;5.824;2024-02-28T02:29:35;101960.81;;;0.16;100.00
61119;BME280;51448;51.660;5.824;2024-02-28T02:32:02;101954.75;;;0.14;100.00
61119;BME280;51448;51.660;5.824;2024-02-28T02:34:30;101952.03;;;0.14;100.00
61119;BME280;51448;51.660;5.824;2024-02-28T02:36:58;101949.56;;;0.13;100.00
61119;BME280;51448;51.660;5.824;2024-02-28T02:39:25;101947.25;;;0.10;100.00
61119;BME280;51448;51.660;5.824;2024-02-28T02:41:53;101955.88;;;0.07;100.00
61119;BME280;51448;51.660;5.824;2024-02-28T02:44:21;101961.97;;;0.02;100.00
61119;BME280;51448;51.660;5.824;2024-02-28T02:46:49;101963.22;;;-0.01;100.00
61119;BME280;51448;51.660;5.824;2024-02-28T02:49:16;101968.88;;;-0.02;100.00
61119;BME280;51448;51.660;5.824;2024-02-28T02:51:45;101970.16;;;-0.05;100.00
61119;BME280;51448;51.660;5.824;2024-02-28T02:54:13;101974.53;;;-0.04;100.00
61119;BME280;51448;51.660;5.824;2024-02-28T02:56:41;101966.63;;;-0.05;100.00
61119;BME280;51448;51.660;5.824;2024-02-28T02:59:12;101967.88;;;-0.08;100.00
61119;BME280;51448;51.660;5.824;2024-02-28T03:01:40;101969.34;;;-0.12;100.00
61119;BME280;51448;51.660;5.824;2024-02-28T03:04:07;101969.00;;;-0.15;100.00
61119;BME280;51448;51.660;5.824;2024-02-28T03:06:35;101966.28;;;-0.15;100.00
61119;BME280;51448;51.660;5.824;2024-02-28T03:09:03;101967.09;;;-0.15;100.00
61119;BME280;51448;51.660;5.824;2024-02-28T03:11:30;101969.00;;;-0.15;100.00
61119;BME280;51448;51.660;5.824;2024-02-28T03:13:58;101970.88;;;-0.16;100.00
61119;BME280;51448;51.660;5.824;2024-02-28T03:16:26;101969.81;;;-0.15;100.00
61119;BME280;51448;51.660;5.824;2024-02-28T03:18:53;101963.56;;;-0.15;100.00
61119;BME280;51448;51.660;5.824;2024-02-28T03:21:21;101970.88;;;-0.16;100.00
61119;BME280;51448;51.660;5.824;2024-02-28T03:23:49;101964.63;;;-0.16;100.00
61119;BME280;51448;51.660;5.824;2024-02-28T03:26:17;101959.41;;;-0.18;100.00
61119;BME280;51448;51.660;5.824;2024-02-28T03:28:44;101970.03;;;-0.16;100.00
61119;BME280;51448;51.660;5.824;2024-02-28T03:31:12;101964.63;;;-0.16;100.00
61119;BME280;51448;51.660;5.824;2024-02-28T03:33:40;101971.91;;;-0.17;100.00
61119;BME280;51448;51.660;5.824;2024-02-28T03:36:07;101978.38;;;-0.18;100.00
61119;BME280;51448;51.660;5.824;2024-02-28T03:38:35;101966.09;;;-0.20;100.00
61119;BME280;51448;51.660;5.824;2024-02-28T03:41:04;101977.38;;;-0.23;100.00
61119;BME280;51448;51.660;5.824;2024-02-28T03:43:32;101968.41;;;-0.24;100.00
61119;BME280;51448;51.660;5.824;2024-02-28T03:46:00;101971.59;;;-0.27;100.00
61119;BME280;51448;51.660;5.824;2024-02-28T03:48:28;101964.47;;;-0.28;100.00
61119;BME280;51448;51.660;5.824;2024-02-28T03:50:55;101960.09;;;-0.29;100.00
61119;BME280;51448;51.660;5.824;2024-02-28T03:53:23;101963.66;;;-0.29;100.00
61119;BME280;51448;51.660;5.824;2024-02-28T03:55:50;101965.75;;;-0.31;100.00
61119;BME280;51448;51.660;5.824;2024-02-28T03:58:18;101972.59;;;-0.28;100.00
61119;BME280;51448;51.660;5.824;2024-02-28T04:00:45;101960.75;;;-0.27;100.00
61119;BME280;51448;51.660;5.824;2024-02-28T04:03:14;101962.59;;;-0.28;100.00
61119;BME280;51448;51.660;5.824;2024-02-28T04:05:41;101968.25;;;-0.29;100.00
61119;BME280;51448;51.660;5.824;2024-02-28T04:08:09;101968.06;;;-0.34;100.00
61119;BME280;51448;51.660;5.824;2024-02-28T04:10:37;101965.81;;;-0.37;100.00
61119;BME280;51448;51.660;5.824;2024-02-28T04:13:05;101973.53;;;-0.41;100.00
61119;BME280;51448;51.660;5.824;2024-02-28T04:15:32;101971.06;;;-0.42;100.00
61119;BME280;51448;51.660;5.824;2024-02-28T04:18:00;101976.69;;;-0.44;100.00
61119;BME280;51448;51.660;5.824;2024-02-28T04:20:28;101978.19;;;-0.48;100.00
61119;BME280;51448;51.660;5.824;2024-02-28T04:22:55;101977.34;;;-0.48;100.00
61119;BME280;51448;51.660;5.824;2024-02-28T04:25:23;101976.94;;;-0.52;100.00
61119;BME280;51448;51.660;5.824;2024-02-28T04:27:50;101982.59;;;-0.54;100.00
61119;BME280;51448;51.660;5.824;2024-02-28T04:30:18;101978.19;;;-0.55;100.00
61119;BME280;51448;51.660;5.824;2024-02-28T04:32:46;101981.97;;;-0.56;100.00
61119;BME280;51448;51.660;5.824;2024-02-28T04:35:13;101983.03;;;-0.57;100.00
61119;BME280;51448;51.660;5.824;2024-02-28T04:37:46;101982.19;;;-0.57;100.00
61119;BME280;51448;51.660;5.824;2024-02-28T04:40:14;101986.78;;;-0.58;100.00
61119;BME280;51448;51.660;5.824;2024-02-28T04:42:42;101992.22;;;-0.58;100.00
61119;BME280;51448;51.660;5.824;2024-02-28T04:45:11;101997.41;;;-0.56;100.00
61119;BME280;51448;51.660;5.824;2024-02-28T04:47:38;101995.53;;;-0.56;100.00
61119;BME280;51448;51.660;5.824;2024-02-28T04:50:11;102001.78;;;-0.55;100.00
61119;BME280;51448;51.660;5.824;2024-02-28T04:52:39;101993.25;;;-0.59;100.00
61119;BME280;51448;51.660;5.824;2024-02-28T04:55:07;101993.47;;;-0.60;100.00
61119;BME280;51448;51.660;5.824;2024-02-28T04:57:35;101994.50;;;-0.61;100.00
61119;BME280;51448;51.660;5.824;2024-02-28T05:00:03;101997.84;;;-0.59;100.00
61119;BME280;51448;51.660;5.824;2024-02-28T05:02:31;101997.03;;;-0.60;100.00
61119;BME280;51448;51.660;5.824;2024-02-28T05:04:58;102006.81;;;-0.59;100.00
61119;BME280;51448;51.660;5.824;2024-02-28T05:07:26;102004.31;;;-0.60;100.00
61119;BME280;51448;51.660;5.824;2024-02-28T05:09:53;102004.09;;;-0.59;100.00
61119;BME280;51448;51.660;5.824;2024-02-28T05:12:21;102004.09;;;-0.59;100.00
61119;BME280;51448;51.660;5.824;2024-02-28T05:14:48;102006.59;;;-0.57;100.00
61119;BME280;51448;51.660;5.824;2024-02-28T05:17:21;102004.28;;;-0.54;100.00
61119;BME280;51448;51.660;5.824;2024-02-28T05:19:48;102004.91;;;-0.51;100.00
61119;BME280;51448;51.660;5.824;2024-02-28T05:22:16;102016.16;;;-0.48;100.00
61119;BME280;51448;51.660;5.824;2024-02-28T05:24:46;102019.47;;;-0.46;100.00
61119;BME280;51448;51.660;5.824;2024-02-28T05:27:14;102022.78;;;-0.44;100.00
61119;BME280;51448;51.660;5.824;2024-02-28T05:29:41;102023.63;;;-0.43;100.00
61119;BME280;51448;51.660;5.824;2024-02-28T05:32:10;102021.13;;;-0.45;100.00
61119;BME280;51448;51.660;5.824;2024-02-28T05:34:37;102023.22;;;-0.47;100.00
61119;BME280;51448;51.660;5.824;2024-02-28T05:37:05;102019.47;;;-0.46;100.00
61119;BME280;51448;51.660;5.824;2024-02-28T05:39:33;102020.28;;;-0.45;100.00
61119;BME280;51448;51.660;5.824;2024-02-28T05:42:01;102026.75;;;-0.46;100.00
61119;BME280;51448;51.660;5.824;2024-02-28T05:44:29;102034.91;;;-0.46;100.00
61119;BME280;51448;51.660;5.824;2024-02-28T05:46:57;102028.66;;;-0.47;100.00
61119;BME280;51448;51.660;5.824;2024-02-28T05:49:24;102034.91;;;-0.46;100.00
61119;BME280;51448;51.660;5.824;2024-02-28T05:51:52;102027.59;;;-0.46;100.00
61119;BME280;51448;51.660;5.824;2024-02-28T05:54:21;102025.72;;;-0.45;100.00
61119;BME280;51448;51.660;5.824;2024-02-28T05:56:51;102021.75;;;-0.49;100.00
61119;BME280;51448;51.660;5.824;2024-02-28T05:59:20;102030.34;;;-0.52;100.00
61119;BME280;51448;51.660;5.824;2024-02-28T06:01:47;102036.59;;;-0.52;100.00
61119;BME280;51448;51.660;5.824;2024-02-28T06:04:16;102033.66;;;-0.50;100.00
61119;BME280;51448;51.660;5.824;2024-02-28T06:06:43;102036.19;;;-0.49;100.00
61119;BME280;51448;51.660;5.824;2024-02-28T06:09:11;102036.56;;;-0.45;100.00
61119;BME280;51448;51.660;5.824;2024-02-28T06:11:38;102047.41;;;-0.45;100.00
61119;BME280;51448;51.660;5.824;2024-02-28T06:14:06;102037.38;;;-0.45;100.00
61119;BME280;51448;51.660;5.824;2024-02-28T06:16:34;102043.63;;;-0.44;100.00
61119;BME280;51448;51.660;5.824;2024-02-28T06:19:01;102036.13;;;-0.42;100.00
61119;BME280;51448;51.660;5.824;2024-02-28T06:21:33;102034.47;;;-0.43;100.00
61119;BME280;51448;51.660;5.824;2024-02-28T06:24:00;102047.59;;;-0.40;100.00
61119;BME280;51448;51.660;5.824;2024-02-28T06:26:28;102045.28;;;-0.37;100.00
61119;BME280;51448;51.660;5.824;2024-02-28T06:28:55;102047.78;;;-0.35;100.00
61119;BME280;51448;51.660;5.824;2024-02-28T06:31:28;102050.06;;;-0.32;100.00
61119;BME280;51448;51.660;5.824;2024-02-28T06:34:02;102047.13;;;-0.31;100.00
61119;BME280;51448;51.660;5.824;2024-02-28T06:36:31;102047.72;;;-0.29;100.00
61119;BME280;51448;51.660;5.824;2024-02-28T06:38:58;102064.00;;;-0.29;100.00
61119;BME280;51448;51.660;5.824;2024-02-28T06:41:26;102067.13;;;-0.25;100.00
61119;BME280;51448;51.660;5.824;2024-02-28T06:43:53;102060.22;;;-0.21;100.00
61119;BME280;51448;51.660;5.824;2024-02-28T06:46:21;102066.03;;;-0.17;100.00
61119;BME280;51448;51.660;5.824;2024-02-28T06:48:48;102073.50;;;-0.13;100.00
61119;BME280;51448;51.660;5.824;2024-02-28T06:51:16;102080.19;;;-0.09;100.00
61119;BME280;51448;51.660;5.824;2024-02-28T06:53:45;102083.28;;;-0.05;100.00
61119;BME280;51448;51.660;5.824;2024-02-28T06:56:12;102078.03;;;0.00;100.00
61119;BME280;51448;51.660;5.824;2024-02-28T06:58:40;102084.69;;;0.04;100.00
61119;BME280;51448;51.660;5.824;2024-02-28T07:01:11;102075.66;;;0.10;100.00
61119;BME280;51448;51.660;5.824;2024-02-28T07:03:40;102083.59;;;0.12;100.00
61119;BME280;51448;51.660;5.824;2024-02-28T07:06:07;102085.25;;;0.13;100.00
61119;BME280;51448;51.660;5.824;2024-02-28T07:08:35;102087.13;;;0.12;100.00
61119;BME280;51448;51.660;5.824;2024-02-28T07:11:02;102088.38;;;0.16;100.00
61119;BME280;51448;51.660;5.824;2024-02-28T07:13:30;102090.41;;;0.21;100.00
61119;BME280;51448;51.660;5.824;2024-02-28T07:15:58;102105.81;;;0.27;100.00
61119;BME280;51448;51.660;5.824;2024-02-28T07:18:25;102112.28;;;0.33;100.00
61119;BME280;51448;51.660;5.824;2024-02-28T07:20:55;102116.81;;;0.39;100.00
61119;BME280;51448;51.660;5.824;2024-02-28T07:23:23;102117.81;;;0.44;100.00
61119;BME280;51448;51.660;5.824;2024-02-28T07:25:51;102110.88;;;0.48;100.00
61119;BME280;51448;51.660;5.824;2024-02-28T07:28:18;102110.84;;;0.55;100.00
61119;BME280;51448;51.660;5.824;2024-02-28T07:30:46;102123.13;;;0.58;100.00
61119;BME280;51448;51.660;5.824;2024-02-28T07:33:15;102113.28;;;0.63;100.00
61119;BME280;51448;51.660;5.824;2024-02-28T07:35:46;102119.69;;;0.69;100.00
61119;BME280;51448;51.660;5.824;2024-02-28T07:38:14;102115.50;;;0.73;100.00
61119;BME280;51448;51.660;5.824;2024-02-28T07:40:44;102118.38;;;0.78;100.00
61119;BME280;51448;51.660;5.824;2024-02-28T07:43:12;102122.50;;;0.81;100.00
61119;BME280;51448;51.660;5.824;2024-02-28T07:45:39;102124.56;;;0.85;100.00
61119;BME280;51448;51.660;5.824;2024-02-28T07:48:07;102126.84;;;0.88;100.00
61119;BME280;51448;51.660;5.824;2024-02-28T07:50:35;102127.00;;;0.93;100.00
61119;BME280;51448;51.660;5.824;2024-02-28T07:53:03;102133.66;;;0.97;100.00
61119;BME280;51448;51.660;5.824;2024-02-28T07:55:31;102132.16;;;1.01;100.00
61119;BME280;51448;51.660;5.824;2024-02-28T07:57:58;102135.41;;;1.10;100.00
61119;BME280;51448;51.660;5.824;2024-02-28T08:00:26;102141.84;;;1.16;100.00
61119;BME280;51448;51.660;5.824;2024-02-28T08:02:54;102143.28;;;1.18;100.00
61119;BME280;51448;51.660;5.824;2024-02-28T08:05:21;102132.78;;;1.22;100.00
61119;BME280;51448;51.660;5.824;2024-02-28T08:07:49;102137.56;;;1.26;100.00
61119;BME280;51448;51.660;5.824;2024-02-28T08:10:16;102140.19;;;1.33;100.00
61119;BME280;51448;51.660;5.824;2024-02-28T08:12:44;102144.72;;;1.39;100.00
61119;BME280;51448;51.660;5.824;2024-02-28T08:15:12;102155.75;;;1.44;100.00
61119;BME280;51448;51.660;5.824;2024-02-28T08:17:39;102152.97;;;1.51;100.00
61119;BME280;51448;51.660;5.824;2024-02-28T08:20:07;102156.22;;;1.60;100.00
61119;BME280;51448;51.660;5.824;2024-02-28T08:22:35;102157.78;;;1.67;100.00
61119;BME280;51448;51.660;5.824;2024-02-28T08:25:03;102153.94;;;1.75;100.00
61119;BME280;51448;51.660;5.824;2024-02-28T08:27:31;102159.53;;;1.80;100.00
61119;BME280;51448;51.660;5.824;2024-02-28T08:30:00;102159.06;;;1.83;100.00
61119;BME280;51448;51.660;5.824;2024-02-28T08:32:28;102162.41;;;1.85;100.00
61119;BME280;51448;51.660;5.824;2024-02-28T08:34:55;102167.97;;;1.90;100.00
61119;BME280;51448;51.660;5.824;2024-02-28T08:37:25;102165.38;;;1.95;100.00
61119;BME280;51448;51.660;5.824;2024-02-28T08:39:55;102174.31;;;2.02;100.00
61119;BME280;51448;51.660;5.824;2024-02-28T08:42:25;102171.75;;;2.07;100.00
61119;BME280;51448;51.660;5.824;2024-02-28T08:44:56;102164.53;;;2.13;100.00
61119;BME280;51448;51.660;5.824;2024-02-28T08:47:24;102172.84;;;2.18;100.00
61119;BME280;51448;51.660;5.824;2024-02-28T08:49:55;102174.66;;;2.24;100.00
61119;BME280;51448;51.660;5.824;2024-02-28T08:52:22;102187.09;;;2.32;100.00
61119;BME280;51448;51.660;5.824;2024-02-28T08:54:50;102181.34;;;2.40;100.00
61119;BME280;51448;51.660;5.824;2024-02-28T08:57:18;102185.16;;;2.51;100.00
61119;BME280;51448;51.660;5.824;2024-02-28T08:59:47;102179.75;;;2.62;100.00
61119;BME280;51448;51.660;5.824;2024-02-28T09:02:18;102178.31;;;2.72;100.00
61119;BME280;51448;51.660;5.824;2024-02-28T09:04:46;102179.66;;;2.81;100.00
61119;BME280;51448;51.660;5.824;2024-02-28T09:07:18;102170.44;;;2.94;100.00
61119;BME280;51448;51.660;5.824;2024-02-28T09:09:48;102169.94;;;3.08;100.00
61119;BME280;51448;51.660;5.824;2024-02-28T09:12:16;102173.03;;;3.24;100.00
61119;BME280;51448;51.660;5.824;2024-02-28T09:14:44;102161.88;;;3.37;100.00
61119;BME280;51448;51.660;5.824;2024-02-28T09:17:13;102165.66;;;3.48;100.00
61119;BME280;51448;51.660;5.824;2024-02-28T09:19:40;102166.72;;;3.58;100.00
61119;BME280;51448;51.660;5.824;2024-02-28T09:22:08;102173.22;;;3.69;100.00
61119;BME280;51448;51.660;5.824;2024-02-28T09:24:37;102172.59;;;3.79;100.00
61119;BME280;51448;51.660;5.824;2024-02-28T09:27:05;102177.44;;;3.88;100.00
61119;BME280;51448;51.660;5.824;2024-02-28T09:29:33;102176.84;;;3.98;100.00
61119;BME280;51448;51.660;5.824;2024-02-28T09:32:01;102157.09;;;4.08;100.00
61119;BME280;51448;51.660;5.824;2024-02-28T09:34:28;102155.97;;;4.20;100.00
61119;BME280;51448;51.660;5.824;2024-02-28T09:36:56;102161.72;;;4.36;100.00
61119;BME280;51448;51.660;5.824;2024-02-28T09:39:23;102155.09;;;4.48;100.00
61119;BME280;51448;51.660;5.824;2024-02-28T09:41:52;102151.22;;;4.61;100.00
61119;BME280;51448;51.660;5.824;2024-02-28T09:44:21;102150.09;;;4.74;100.00
61119;BME280;51448;51.660;5.824;2024-02-28T09:46:51;102148.91;;;4.87;100.00
61119;BME280;51448;51.660;5.824;2024-02-28T09:49:19;102153.81;;;5.01;100.00
61119;BME280;51448;51.660;5.824;2024-02-28T09:51:49;102147.72;;;5.16;100.00
61119;BME280;51448;51.660;5.824;2024-02-28T09:54:20;102149.84;;;5.31;100.00
61119;BME280;51448;51.660;5.824;2024-02-28T09:56:48;102150.34;;;5.45;100.00
61119;BME280;51448;51.660;5.824;2024-02-28T09:59:18;102152.94;;;5.57;100.00
61119;BME280;51448;51.660;5.824;2024-02-28T10:01:59;102149.53;;;5.66;100.00
61119;BME280;51448;51.660;5.824;2024-02-28T10:04:29;102154.28;;;5.76;100.00
61119;BME280;51448;51.660;5.824;2024-02-28T10:06:56;102155.16;;;5.81;100.00
61119;BME280;51448;51.660;5.824;2024-02-28T10:09:24;102146.94;;;5.81;100.00
61119;BME280;51448;51.660;5.824;2024-02-28T10:11:52;102153.56;;;5.86;100.00
61119;BME280;51448;51.660;5.824;2024-02-28T10:14:19;102153.91;;;5.89;100.00
61119;BME280;51448;51.660;5.824;2024-02-28T10:16:47;102156.22;;;5.97;100.00
61119;BME280;51448;51.660;5.824;2024-02-28T10:19:14;102159.84;;;6.03;100.00
61119;BME280;51448;51.660;5.824;2024-02-28T10:21:42;102172.28;;;6.11;100.00
61119;BME280;51448;51.660;5.824;2024-02-28T10:24:12;102169.88;;;6.19;100.00
61119;BME280;51448;51.660;5.824;2024-02-28T10:26:43;102168.34;;;6.28;100.00
61119;BME280;51448;51.660;5.824;2024-02-28T10:29:11;102168.19;;;6.40;100.00
61119;BME280;51448;51.660;5.824;2024-02-28T10:31:39;102160.38;;;6.54;100.00
61119;BME280;51448;51.660;5.824;2024-02-28T10:34:08;102164.34;;;6.68;100.00
61119;BME280;51448;51.660;5.824;2024-02-28T10:36:37;102154.53;;;6.77;100.00
61119;BME280;51448;51.660;5.824;2024-02-28T10:39:06;102157.06;;;6.84;100.00
61119;BME280;51448;51.660;5.824;2024-02-28T10:41:38;102155.50;;;6.93;100.00
61119;BME280;51448;51.660;5.824;2024-02-28T10:44:06;102152.00;;;7.03;100.00
61119;BME280;51448;51.660;5.824;2024-02-28T10:46:35;102142.16;;;7.12;100.00
61119;BME280;51448;51.660;5.824;2024-02-28T10:49:05;102148.84;;;7.21;100.00
61119;BME280;51448;51.660;5.824;2024-02-28T10:51:36;102139.28;;;7.29;100.00
61119;BME280;51448;51.660;5.824;2024-02-28T10:54:10;102133.56;;;7.35;100.00
61119;BME280;51448;51.660;5.824;2024-02-28T10:56:41;102137.97;;;7.42;100.00
61119;BME280;51448;51.660;5.824;2024-02-28T10:59:11;102135.56;;;7.50;100.00
61119;BME280;51448;51.660;5.824;2024-02-28T11:01:42;102139.72;;;7.63;100.00
61119;BME280;51448;51.660;5.824;2024-02-28T11:04:12;102132.63;;;7.72;100.00
61119;BME280;51448;51.660;5.824;2024-02-28T11:06:54;102138.16;;;7.82;100.00
61119;BME280;51448;51.660;5.824;2024-02-28T11:09:25;102144.25;;;7.89;100.00
61119;BME280;51448;51.660;5.824;2024-02-28T11:11:54;102136.84;;;7.95;100.00
61119;BME280;51448;51.660;5.824;2024-02-28T11:14:23;102133.81;;;8.02;100.00
61119;BME280;51448;51.660;5.824;2024-02-28T11:17:05;102131.13;;;8.12;100.00
61119;BME280;51448;51.660;5.824;2024-02-28T11:19:33;102130.03;;;8.18;99.76
61119;BME280;51448;51.660;5.824;2024-02-28T11:22:02;102124.53;;;8.23;99.61
61119;BME280;51448;51.660;5.824;2024-02-28T11:24:34;102125.66;;;8.27;99.62
61119;BME280;51448;51.660;5.824;2024-02-28T11:27:04;102126.19;;;8.34;99.45
61119;BME280;51448;51.660;5.824;2024-02-28T11:29:33;102125.13;;;8.40;99.34
61119;BME280;51448;51.660;5.824;2024-02-28T11:32:01;102127.34;;;8.43;99.11
61119;BME280;51448;51.660;5.824;2024-02-28T11:34:29;102122.09;;;8.47;98.99
61119;BME280;51448;51.660;5.824;2024-02-28T11:36:56;102127.91;;;8.51;98.68
61119;BME280;51448;51.660;5.824;2024-02-28T11:39:26;102128.44;;;8.53;97.93
61119;BME280;51448;51.660;5.824;2024-02-28T11:41:54;102124.03;;;8.52;97.94
61119;BME280;51448;51.660;5.824;2024-02-28T11:44:22;102119.38;;;8.52;98.19
61119;BME280;51448;51.660;5.824;2024-02-28T11:46:50;102113.63;;;8.54;97.89
61119;BME280;51448;51.660;5.824;2024-02-28T11:49:18;102117.44;;;8.58;97.08
61119;BME280;51448;51.660;5.824;2024-02-28T11:51:46;102109.47;;;8.56;96.33
61119;BME280;51448;51.660;5.824;2024-02-28T11:54:16;102110.84;;;8.54;96.82
61119;BME280;51448;51.660;5.824;2024-02-28T11:56:46;102103.16;;;8.56;97.29
61119;BME280;51448;51.660;5.824;2024-02-28T11:59:13;102092.97;;;8.61;97.05
61119;BME280;51448;51.660;5.824;2024-02-28T12:01:42;102093.50;;;8.63;96.77
61119;BME280;51448;51.660;5.824;2024-02-28T12:04:14;102096.00;;;8.65;96.68
61119;BME280;51448;51.660;5.824;2024-02-28T12:06:41;102092.69;;;8.68;96.75
61119;BME280;51448;51.660;5.824;2024-02-28T12:09:12;102091.03;;;8.72;96.55
61119;BME280;51448;51.660;5.824;2024-02-28T12:11:54;102090.47;;;8.75;96.70
61119;BME280;51448;51.660;5.824;2024-02-28T12:14:21;102085.53;;;8.82;96.68
61119;BME280;51448;51.660;5.824;2024-02-28T12:16:49;102085.22;;;8.89;96.40
61119;BME280;51448;51.660;5.824;2024-02-28T12:19:17;102083.84;;;8.91;96.06
61119;BME280;51448;51.660;5.824;2024-02-28T12:21:47;102076.69;;;8.95;96.15
61119;BME280;51448;51.660;5.824;2024-02-28T12:24:15;102069.81;;;9.03;95.96
61119;BME280;51448;51.660;5.824;2024-02-28T12:26:43;102069.50;;;9.05;96.03
61119;BME280;51448;51.660;5.824;2024-02-28T12:29:11;102061.78;;;9.07;95.98
61119;BME280;51448;51.660;5.824;2024-02-28T12:31:39;102056.28;;;9.07;94.85
61119;BME280;51448;51.660;5.824;2024-02-28T12:34:06;102057.97;;;9.03;94.16
61119;BME280;51448;51.660;5.824;2024-02-28T12:36:34;102053.00;;;9.00;94.13
61119;BME280;51448;51.660;5.824;2024-02-28T12:39:02;102060.97;;;8.96;94.45
61119;BME280;51448;51.660;5.824;2024-02-28T12:41:29;102054.13;;;8.93;94.17
61119;BME280;51448;51.660;5.824;2024-02-28T12:43:57;102054.13;;;8.93;94.77
61119;BME280;51448;51.660;5.824;2024-02-28T12:46:24;102052.19;;;8.94;94.76
61119;BME280;51448;51.660;5.824;2024-02-28T12:48:52;102052.47;;;8.92;94.72
61119;BME280;51448;51.660;5.824;2024-02-28T12:51:55;102054.94;;;8.94;94.67
61119;BME280;51448;51.660;5.824;2024-02-28T12:54:23;102059.34;;;8.90;94.70